sensor_id;sensor_type;location;lat;lon;timestamp;P1;durP1;ratioP1;P2;durP2;ratioP2
73940;SDS011;62294;48.554;10.202;2022-08-21T00:02:14;2.63;;;1.38;;
73940;SDS011;62294;48.554;10.202;2022-08-21T00:04:42;1.38;;;1.27;;
73940;SDS011;62294;48.554;10.202;2022-08-21T00:07:22;1.52;;;1.27;;
73940;SDS011;62294;48.554;10.202;2022-08-21T00:09:50;1.42;;;1.30;;
73940;SDS011;62294;48.554;10.202;2022-08-21T00:12:17;1.92;;;1.48;;
73940;SDS011;62294;48.554;10.202;2022-08-21T00:14:44;2.45;;;1.58;;
73940;SDS011;62294;48.554;10.202;2022-08-21T00:17:11;4.28;;;1.95;;
73940;SDS011;62294;48.554;10.202;2022-08-21T00:19:38;3.10;;;2.00;;
73940;SDS011;62294;48.554;10.202;2022-08-21T00:22:04;3.97;;;2.00;;
73940;SDS011;62294;48.554;10.202;2022-08-21T00:24:31;2.92;;;2.00;;
73940;SDS011;62294;48.554;10.202;2022-08-21T00:26:58;2.20;;;1.73;;
73940;SDS011;62294;48.554;10.202;2022-08-21T00:29:24;3.63;;;2.00;;
73940;SDS011;62294;48.554;10.202;2022-08-21T00:31:51;1.77;;;1.35;;
73940;SDS011;62294;48.554;10.202;2022-08-21T00:34:18;2.30;;;1.20;;
73940;SDS011;62294;48.554;10.202;2022-08-21T00:36:44;2.10;;;1.35;;
73940;SDS011;62294;48.554;10.202;2022-08-21T00:39:12;1.00;;;1.00;;
73940;SDS011;62294;48.554;10.202;2022-08-21T00:41:38;1.30;;;1.15;;
73940;SDS011;62294;48.554;10.202;2022-08-21T00:44:06;2.10;;;1.50;;
73940;SDS011;62294;48.554;10.202;2022-08-21T00:46:35;2.05;;;1.40;;
73940;SDS011;62294;48.554;10.202;2022-08-21T00:49:03;2.38;;;1.58;;
73940;SDS011;62294;48.554;10.202;2022-08-21T00:52:04;1.88;;;1.45;;
73940;SDS011;62294;48.554;10.202;2022-08-21T00:54:27;3.35;;;1.80;;
73940;SDS011;62294;48.554;10.202;2022-08-21T00:56:57;1.77;;;1.30;;
73940;SDS011;62294;48.554;10.202;2022-08-21T00:59:27;3.22;;;1.40;;
73940;SDS011;62294;48.554;10.202;2022-08-21T01:01:55;2.38;;;1.70;;
73940;SDS011;62294;48.554;10.202;2022-08-21T01:04:21;1.95;;;1.40;;
73940;SDS011;62294;48.554;10.202;2022-08-21T01:06:49;2.17;;;1.30;;
73940;SDS011;62294;48.554;10.202;2022-08-21T01:09:17;3.00;;;1.17;;
73940;SDS011;62294;48.554;10.202;2022-08-21T01:11:44;2.10;;;1.40;;
73940;SDS011;62294;48.554;10.202;2022-08-21T01:14:12;3.65;;;1.45;;
73940;SDS011;62294;48.554;10.202;2022-08-21T01:16:40;2.33;;;1.13;;
73940;SDS011;62294;48.554;10.202;2022-08-21T01:19:10;3.38;;;1.30;;
73940;SDS011;62294;48.554;10.202;2022-08-21T01:21:38;1.67;;;1.40;;
73940;SDS011;62294;48.554;10.202;2022-08-21T01:24:04;1.40;;;1.30;;
73940;SDS011;62294;48.554;10.202;2022-08-21T01:26:32;2.40;;;1.10;;
73940;SDS011;62294;48.554;10.202;2022-08-21T01:29:05;2.13;;;1.20;;
73940;SDS011;62294;48.554;10.202;2022-08-21T01:31:51;1.38;;;1.05;;
73940;SDS011;62294;48.554;10.202;2022-08-21T01:34:18;1.50;;;1.15;;
73940;SDS011;62294;48.554;10.202;2022-08-21T01:36:45;1.73;;;1.40;;
73940;SDS011;62294;48.554;10.202;2022-08-21T01:39:12;1.27;;;1.15;;
73940;SDS011;62294;48.554;10.202;2022-08-21T01:41:38;1.20;;;1.10;;
73940;SDS011;62294;48.554;10.202;2022-08-21T01:44:05;1.50;;;1.27;;
73940;SDS011;62294;48.554;10.202;2022-08-21T01:46:32;1.88;;;1.20;;
73940;SDS011;62294;48.554;10.202;2022-08-21T01:48:58;1.45;;;1.35;;
73940;SDS011;62294;48.554;10.202;2022-08-21T01:51:25;2.78;;;1.30;;
73940;SDS011;62294;48.554;10.202;2022-08-21T01:53:52;2.58;;;1.48;;
73940;SDS011;62294;48.554;10.202;2022-08-21T01:56:18;3.00;;;1.40;;
73940;SDS011;62294;48.554;10.202;2022-08-21T01:58:45;6.20;;;2.38;;
73940;SDS011;62294;48.554;10.202;2022-08-21T02:01:13;3.75;;;1.63;;
73940;SDS011;62294;48.554;10.202;2022-08-21T02:03:40;4.43;;;1.80;;
73940;SDS011;62294;48.554;10.202;2022-08-21T02:06:11;3.67;;;1.50;;
73940;SDS011;62294;48.554;10.202;2022-08-21T02:08:40;2.00;;;1.63;;
73940;SDS011;62294;48.554;10.202;2022-08-21T02:11:07;1.85;;;1.52;;
73940;SDS011;62294;48.554;10.202;2022-08-21T02:13:34;2.00;;;1.60;;
73940;SDS011;62294;48.554;10.202;2022-08-21T02:16:00;1.60;;;1.48;;
73940;SDS011;62294;48.554;10.202;2022-08-21T02:18:27;3.17;;;1.58;;
73940;SDS011;62294;48.554;10.202;2022-08-21T02:20:55;2.53;;;1.63;;
73940;SDS011;62294;48.554;10.202;2022-08-21T02:23:22;2.30;;;1.58;;
73940;SDS011;62294;48.554;10.202;2022-08-21T02:25:52;2.97;;;1.80;;
73940;SDS011;62294;48.554;10.202;2022-08-21T02:28:19;2.10;;;1.60;;
73940;SDS011;62294;48.554;10.202;2022-08-21T02:30:46;2.35;;;1.58;;
73940;SDS011;62294;48.554;10.202;2022-08-21T02:33:14;2.70;;;1.60;;
73940;SDS011;62294;48.554;10.202;2022-08-21T02:35:41;2.58;;;1.67;;
73940;SDS011;62294;48.554;10.202;2022-08-21T02:38:10;4.00;;;1.75;;
73940;SDS011;62294;48.554;10.202;2022-08-21T02:40:40;1.95;;;1.60;;
73940;SDS011;62294;48.554;10.202;2022-08-21T02:43:13;1.95;;;1.60;;
73940;SDS011;62294;48.554;10.202;2022-08-21T02:45:41;3.88;;;1.50;;
73940;SDS011;62294;48.554;10.202;2022-08-21T02:48:09;1.98;;;1.63;;
73940;SDS011;62294;48.554;10.202;2022-08-21T02:50:39;2.70;;;1.70;;
73940;SDS011;62294;48.554;10.202;2022-08-21T02:53:09;3.97;;;1.70;;
73940;SDS011;62294;48.554;10.202;2022-08-21T02:55:46;3.10;;;1.45;;
73940;SDS011;62294;48.554;10.202;2022-08-21T02:58:15;2.00;;;1.60;;
73940;SDS011;62294;48.554;10.202;2022-08-21T03:00:43;2.20;;;1.60;;
73940;SDS011;62294;48.554;10.202;2022-08-21T03:03:10;3.28;;;1.90;;
73940;SDS011;62294;48.554;10.202;2022-08-21T03:05:37;2.58;;;1.83;;
73940;SDS011;62294;48.554;10.202;2022-08-21T03:08:05;1.98;;;1.58;;
73940;SDS011;62294;48.554;10.202;2022-08-21T03:10:37;4.55;;;1.90;;
73940;SDS011;62294;48.554;10.202;2022-08-21T03:13:06;2.47;;;1.77;;
73940;SDS011;62294;48.554;10.202;2022-08-21T03:15:33;3.08;;;2.17;;
73940;SDS011;62294;48.554;10.202;2022-08-21T03:18:00;2.97;;;2.05;;
73940;SDS011;62294;48.554;10.202;2022-08-21T03:20:28;6.18;;;2.15;;
73940;SDS011;62294;48.554;10.202;2022-08-21T03:22:55;5.60;;;2.30;;
73940;SDS011;62294;48.554;10.202;2022-08-21T03:25:23;3.03;;;2.17;;
73940;SDS011;62294;48.554;10.202;2022-08-21T03:28:06;3.58;;;2.30;;
73940;SDS011;62294;48.554;10.202;2022-08-21T03:30:40;2.50;;;2.03;;
73940;SDS011;62294;48.554;10.202;2022-08-21T03:33:08;4.90;;;2.30;;
73940;SDS011;62294;48.554;10.202;2022-08-21T03:35:38;2.85;;;1.92;;
73940;SDS011;62294;48.554;10.202;2022-08-21T03:38:04;3.03;;;1.45;;
73940;SDS011;62294;48.554;10.202;2022-08-21T03:40:31;3.13;;;2.20;;
73940;SDS011;62294;48.554;10.202;2022-08-21T03:42:58;6.53;;;2.80;;
73940;SDS011;62294;48.554;10.202;2022-08-21T03:45:25;4.47;;;1.55;;
73940;SDS011;62294;48.554;10.202;2022-08-21T03:50:19;2.72;;;1.73;;
73940;SDS011;62294;48.554;10.202;2022-08-21T03:52:46;2.03;;;1.60;;
73940;SDS011;62294;48.554;10.202;2022-08-21T03:55:13;2.83;;;1.88;;
73940;SDS011;62294;48.554;10.202;2022-08-21T03:57:39;3.20;;;1.80;;
73940;SDS011;62294;48.554;10.202;2022-08-21T04:00:06;2.67;;;1.92;;
73940;SDS011;62294;48.554;10.202;2022-08-21T04:02:35;2.45;;;1.75;;
73940;SDS011;62294;48.554;10.202;2022-08-21T04:05:02;5.47;;;1.88;;
73940;SDS011;62294;48.554;10.202;2022-08-21T04:07:29;2.65;;;1.98;;
73940;SDS011;62294;48.554;10.202;2022-08-21T04:09:55;2.78;;;1.70;;
73940;SDS011;62294;48.554;10.202;2022-08-21T04:12:22;3.75;;;2.17;;
73940;SDS011;62294;48.554;10.202;2022-08-21T04:14:49;3.10;;;1.88;;
73940;SDS011;62294;48.554;10.202;2022-08-21T04:17:17;3.53;;;1.90;;
73940;SDS011;62294;48.554;10.202;2022-08-21T04:19:44;2.75;;;1.85;;
73940;SDS011;62294;48.554;10.202;2022-08-21T04:22:18;3.38;;;1.90;;
73940;SDS011;62294;48.554;10.202;2022-08-21T04:24:45;2.70;;;1.65;;
73940;SDS011;62294;48.554;10.202;2022-08-21T04:27:11;2.85;;;1.73;;
73940;SDS011;62294;48.554;10.202;2022-08-21T04:29:38;3.72;;;2.00;;
73940;SDS011;62294;48.554;10.202;2022-08-21T04:32:05;5.15;;;2.35;;
73940;SDS011;62294;48.554;10.202;2022-08-21T04:34:32;5.20;;;2.20;;
73940;SDS011;62294;48.554;10.202;2022-08-21T04:36:59;4.97;;;2.17;;
73940;SDS011;62294;48.554;10.202;2022-08-21T04:39:25;2.63;;;1.73;;
73940;SDS011;62294;48.554;10.202;2022-08-21T04:41:55;2.95;;;1.80;;
73940;SDS011;62294;48.554;10.202;2022-08-21T04:44:21;4.03;;;2.13;;
73940;SDS011;62294;48.554;10.202;2022-08-21T04:46:48;5.78;;;2.15;;
73940;SDS011;62294;48.554;10.202;2022-08-21T04:49:14;3.72;;;2.10;;
73940;SDS011;62294;48.554;10.202;2022-08-21T04:51:41;2.58;;;1.75;;
73940;SDS011;62294;48.554;10.202;2022-08-21T04:54:12;3.03;;;2.08;;
73940;SDS011;62294;48.554;10.202;2022-08-21T04:56:51;3.78;;;2.42;;
73940;SDS011;62294;48.554;10.202;2022-08-21T04:59:33;4.45;;;2.90;;
73940;SDS011;62294;48.554;10.202;2022-08-21T05:02:06;5.17;;;2.67;;
73940;SDS011;62294;48.554;10.202;2022-08-21T05:04:36;6.05;;;2.67;;
73940;SDS011;62294;48.554;10.202;2022-08-21T05:07:06;9.15;;;2.53;;
73940;SDS011;62294;48.554;10.202;2022-08-21T05:09:36;5.70;;;2.72;;
73940;SDS011;62294;48.554;10.202;2022-08-21T05:12:04;6.03;;;2.95;;
73940;SDS011;62294;48.554;10.202;2022-08-21T05:14:32;7.25;;;3.40;;
73940;SDS011;62294;48.554;10.202;2022-08-21T05:16:59;8.70;;;4.13;;
73940;SDS011;62294;48.554;10.202;2022-08-21T05:19:25;6.30;;;3.17;;
73940;SDS011;62294;48.554;10.202;2022-08-21T05:21:52;6.47;;;3.53;;
73940;SDS011;62294;48.554;10.202;2022-08-21T05:24:18;5.13;;;3.25;;
73940;SDS011;62294;48.554;10.202;2022-08-21T05:26:45;5.88;;;3.55;;
73940;SDS011;62294;48.554;10.202;2022-08-21T05:29:14;6.95;;;3.90;;
73940;SDS011;62294;48.554;10.202;2022-08-21T05:31:41;7.80;;;4.10;;
73940;SDS011;62294;48.554;10.202;2022-08-21T05:34:09;6.88;;;3.72;;
73940;SDS011;62294;48.554;10.202;2022-08-21T05:36:36;8.13;;;4.22;;
73940;SDS011;62294;48.554;10.202;2022-08-21T05:39:02;6.43;;;4.15;;
73940;SDS011;62294;48.554;10.202;2022-08-21T05:41:29;6.10;;;4.07;;
73940;SDS011;62294;48.554;10.202;2022-08-21T05:43:59;5.63;;;3.55;;
73940;SDS011;62294;48.554;10.202;2022-08-21T05:46:25;7.75;;;4.70;;
73940;SDS011;62294;48.554;10.202;2022-08-21T05:48:52;7.15;;;4.50;;
73940;SDS011;62294;48.554;10.202;2022-08-21T05:51:19;8.52;;;4.90;;
73940;SDS011;62294;48.554;10.202;2022-08-21T05:53:45;6.43;;;4.25;;
73940;SDS011;62294;48.554;10.202;2022-08-21T05:56:12;5.95;;;3.67;;
73940;SDS011;62294;48.554;10.202;2022-08-21T05:58:39;6.35;;;3.90;;
73940;SDS011;62294;48.554;10.202;2022-08-21T06:01:06;5.57;;;3.53;;
73940;SDS011;62294;48.554;10.202;2022-08-21T06:03:35;12.13;;;6.32;;
73940;SDS011;62294;48.554;10.202;2022-08-21T06:06:04;27.73;;;9.65;;
73940;SDS011;62294;48.554;10.202;2022-08-21T06:08:31;33.90;;;12.40;;
73940;SDS011;62294;48.554;10.202;2022-08-21T06:10:58;39.20;;;13.10;;
73940;SDS011;62294;48.554;10.202;2022-08-21T06:13:26;42.63;;;13.65;;
73940;SDS011;62294;48.554;10.202;2022-08-21T06:16:06;34.20;;;13.10;;
73940;SDS011;62294;48.554;10.202;2022-08-21T06:18:41;34.55;;;11.68;;
73940;SDS011;62294;48.554;10.202;2022-08-21T06:21:09;36.20;;;12.38;;
73940;SDS011;62294;48.554;10.202;2022-08-21T06:23:37;28.08;;;11.98;;
73940;SDS011;62294;48.554;10.202;2022-08-21T06:26:05;30.77;;;11.90;;
73940;SDS011;62294;48.554;10.202;2022-08-21T06:28:33;32.85;;;12.70;;
73940;SDS011;62294;48.554;10.202;2022-08-21T06:31:00;36.60;;;13.82;;
73940;SDS011;62294;48.554;10.202;2022-08-21T06:33:27;44.10;;;13.90;;
73940;SDS011;62294;48.554;10.202;2022-08-21T06:35:58;36.88;;;14.30;;
73940;SDS011;62294;48.554;10.202;2022-08-21T06:38:24;38.58;;;14.75;;
73940;SDS011;62294;48.554;10.202;2022-08-21T06:40:51;36.47;;;14.40;;
73940;SDS011;62294;48.554;10.202;2022-08-21T06:43:18;24.40;;;10.40;;
73940;SDS011;62294;48.554;10.202;2022-08-21T06:45:44;14.90;;;7.00;;
73940;SDS011;62294;48.554;10.202;2022-08-21T06:48:11;6.10;;;3.50;;
73940;SDS011;62294;48.554;10.202;2022-08-21T06:50:44;8.48;;;3.30;;
73940;SDS011;62294;48.554;10.202;2022-08-21T06:53:11;6.32;;;3.10;;
73940;SDS011;62294;48.554;10.202;2022-08-21T06:55:39;4.88;;;3.40;;
73940;SDS011;62294;48.554;10.202;2022-08-21T06:58:06;9.00;;;3.55;;
73940;SDS011;62294;48.554;10.202;2022-08-21T07:00:35;4.60;;;2.67;;
73940;SDS011;62294;48.554;10.202;2022-08-21T07:03:04;5.72;;;3.25;;
73940;SDS011;62294;48.554;10.202;2022-08-21T07:05:31;4.88;;;3.00;;
73940;SDS011;62294;48.554;10.202;2022-08-21T07:07:58;4.78;;;3.03;;
73940;SDS011;62294;48.554;10.202;2022-08-21T07:10:25;5.57;;;3.03;;
73940;SDS011;62294;48.554;10.202;2022-08-21T07:12:53;4.95;;;2.83;;
73940;SDS011;62294;48.554;10.202;2022-08-21T07:17:55;5.35;;;2.50;;
73940;SDS011;62294;48.554;10.202;2022-08-21T07:20:22;3.33;;;2.28;;
73940;SDS011;62294;48.554;10.202;2022-08-21T07:22:49;4.78;;;2.85;;
73940;SDS011;62294;48.554;10.202;2022-08-21T07:25:15;5.85;;;2.72;;
73940;SDS011;62294;48.554;10.202;2022-08-21T07:27:42;3.30;;;2.58;;
73940;SDS011;62294;48.554;10.202;2022-08-21T07:30:09;3.80;;;2.47;;
73940;SDS011;62294;48.554;10.202;2022-08-21T07:32:35;4.15;;;2.53;;
73940;SDS011;62294;48.554;10.202;2022-08-21T07:35:03;3.70;;;2.10;;
73940;SDS011;62294;48.554;10.202;2022-08-21T07:37:30;3.42;;;2.03;;
73940;SDS011;62294;48.554;10.202;2022-08-21T07:39:56;3.53;;;1.90;;
73940;SDS011;62294;48.554;10.202;2022-08-21T07:42:23;2.53;;;1.88;;
73940;SDS011;62294;48.554;10.202;2022-08-21T07:44:50;3.60;;;2.15;;
73940;SDS011;62294;48.554;10.202;2022-08-21T07:47:21;7.32;;;2.30;;
73940;SDS011;62294;48.554;10.202;2022-08-21T07:50:07;4.25;;;2.10;;
73940;SDS011;62294;48.554;10.202;2022-08-21T07:52:35;3.85;;;2.22;;
73940;SDS011;62294;48.554;10.202;2022-08-21T07:55:01;5.18;;;2.70;;
73940;SDS011;62294;48.554;10.202;2022-08-21T07:57:31;2.95;;;2.03;;
73940;SDS011;62294;48.554;10.202;2022-08-21T07:59:58;4.13;;;2.28;;
73940;SDS011;62294;48.554;10.202;2022-08-21T08:02:25;3.22;;;2.30;;
73940;SDS011;62294;48.554;10.202;2022-08-21T08:04:54;5.05;;;2.20;;
73940;SDS011;62294;48.554;10.202;2022-08-21T08:07:25;2.45;;;2.00;;
73940;SDS011;62294;48.554;10.202;2022-08-21T08:09:52;4.22;;;2.22;;
73940;SDS011;62294;48.554;10.202;2022-08-21T08:12:18;3.30;;;2.20;;
73940;SDS011;62294;48.554;10.202;2022-08-21T08:14:47;5.45;;;2.50;;
73940;SDS011;62294;48.554;10.202;2022-08-21T08:17:13;4.32;;;2.47;;
73940;SDS011;62294;48.554;10.202;2022-08-21T08:19:39;4.38;;;2.55;;
73940;SDS011;62294;48.554;10.202;2022-08-21T08:22:13;6.28;;;2.50;;
73940;SDS011;62294;48.554;10.202;2022-08-21T08:24:40;4.85;;;2.30;;
73940;SDS011;62294;48.554;10.202;2022-08-21T08:27:07;3.25;;;2.17;;
73940;SDS011;62294;48.554;10.202;2022-08-21T08:29:34;4.70;;;2.50;;
73940;SDS011;62294;48.554;10.202;2022-08-21T08:32:01;3.28;;;1.90;;
73940;SDS011;62294;48.554;10.202;2022-08-21T08:34:28;6.00;;;2.70;;
73940;SDS011;62294;48.554;10.202;2022-08-21T08:36:57;4.40;;;2.40;;
73940;SDS011;62294;48.554;10.202;2022-08-21T08:39:24;5.22;;;2.60;;
73940;SDS011;62294;48.554;10.202;2022-08-21T08:41:59;5.95;;;2.33;;
73940;SDS011;62294;48.554;10.202;2022-08-21T08:44:59;5.35;;;2.55;;
73940;SDS011;62294;48.554;10.202;2022-08-21T08:47:29;5.55;;;2.30;;
73940;SDS011;62294;48.554;10.202;2022-08-21T08:50:06;5.60;;;2.40;;
73940;SDS011;62294;48.554;10.202;2022-08-21T08:52:36;4.68;;;2.35;;
73940;SDS011;62294;48.554;10.202;2022-08-21T08:55:22;3.90;;;2.42;;
73940;SDS011;62294;48.554;10.202;2022-08-21T08:57:52;6.03;;;2.63;;
73940;SDS011;62294;48.554;10.202;2022-08-21T09:00:22;4.15;;;2.35;;
73940;SDS011;62294;48.554;10.202;2022-08-21T09:02:51;6.10;;;2.40;;
73940;SDS011;62294;48.554;10.202;2022-08-21T09:11:20;4.50;;;2.42;;
73940;SDS011;62294;48.554;10.202;2022-08-21T09:14:11;5.90;;;2.42;;
73940;SDS011;62294;48.554;10.202;2022-08-21T09:24:53;7.15;;;2.70;;
73940;SDS011;62294;48.554;10.202;2022-08-21T09:27:37;6.60;;;2.65;;
73940;SDS011;62294;48.554;10.202;2022-08-21T09:30:05;4.60;;;2.45;;
73940;SDS011;62294;48.554;10.202;2022-08-21T09:32:35;3.00;;;2.03;;
73940;SDS011;62294;48.554;10.202;2022-08-21T09:37:30;4.78;;;2.13;;
73940;SDS011;62294;48.554;10.202;2022-08-21T09:39:58;4.80;;;2.47;;
73940;SDS011;62294;48.554;10.202;2022-08-21T09:42:26;5.15;;;2.95;;
73940;SDS011;62294;48.554;10.202;2022-08-21T09:45:06;6.05;;;2.70;;
73940;SDS011;62294;48.554;10.202;2022-08-21T09:47:38;5.30;;;2.80;;
73940;SDS011;62294;48.554;10.202;2022-08-21T09:50:38;4.15;;;3.00;;
73940;SDS011;62294;48.554;10.202;2022-08-21T09:52:58;4.97;;;2.55;;
73940;SDS011;62294;48.554;10.202;2022-08-21T09:55:47;4.10;;;2.63;;
73940;SDS011;62294;48.554;10.202;2022-08-21T09:58:34;5.88;;;2.90;;
73940;SDS011;62294;48.554;10.202;2022-08-21T10:01:03;7.65;;;2.75;;
73940;SDS011;62294;48.554;10.202;2022-08-21T10:03:31;4.93;;;2.65;;
73940;SDS011;62294;48.554;10.202;2022-08-21T10:06:00;5.75;;;2.40;;
73940;SDS011;62294;48.554;10.202;2022-08-21T10:08:35;5.15;;;3.25;;
73940;SDS011;62294;48.554;10.202;2022-08-21T10:11:08;6.60;;;3.13;;
73940;SDS011;62294;48.554;10.202;2022-08-21T10:16:42;6.38;;;3.00;;
73940;SDS011;62294;48.554;10.202;2022-08-21T10:19:15;5.53;;;2.70;;
73940;SDS011;62294;48.554;10.202;2022-08-21T10:22:00;5.07;;;2.85;;
73940;SDS011;62294;48.554;10.202;2022-08-21T10:24:42;4.22;;;2.35;;
73940;SDS011;62294;48.554;10.202;2022-08-21T10:29:55;8.05;;;2.90;;
73940;SDS011;62294;48.554;10.202;2022-08-21T10:41:10;4.70;;;2.72;;
73940;SDS011;62294;48.554;10.202;2022-08-21T10:44:02;4.25;;;2.75;;
73940;SDS011;62294;48.554;10.202;2022-08-21T10:52:06;4.85;;;2.28;;
73940;SDS011;62294;48.554;10.202;2022-08-21T10:54:55;6.10;;;2.55;;
73940;SDS011;62294;48.554;10.202;2022-08-21T10:57:33;5.55;;;2.38;;
73940;SDS011;62294;48.554;10.202;2022-08-21T11:00:13;6.60;;;2.30;;
73940;SDS011;62294;48.554;10.202;2022-08-21T11:02:45;4.22;;;2.38;;
73940;SDS011;62294;48.554;10.202;2022-08-21T11:05:39;6.72;;;2.72;;
73940;SDS011;62294;48.554;10.202;2022-08-21T11:09:03;5.15;;;2.42;;
73940;SDS011;62294;48.554;10.202;2022-08-21T11:11:10;5.57;;;2.75;;
73940;SDS011;62294;48.554;10.202;2022-08-21T11:16:33;4.30;;;2.35;;
73940;SDS011;62294;48.554;10.202;2022-08-21T11:22:17;4.35;;;2.53;;
73940;SDS011;62294;48.554;10.202;2022-08-21T11:24:57;3.75;;;2.00;;
73940;SDS011;62294;48.554;10.202;2022-08-21T11:27:33;3.60;;;2.20;;
73940;SDS011;62294;48.554;10.202;2022-08-21T11:30:21;4.82;;;2.38;;
73940;SDS011;62294;48.554;10.202;2022-08-21T11:33:34;3.33;;;2.22;;
73940;SDS011;62294;48.554;10.202;2022-08-21T11:36:12;6.82;;;2.63;;
73940;SDS011;62294;48.554;10.202;2022-08-21T11:39:02;5.22;;;2.08;;
73940;SDS011;62294;48.554;10.202;2022-08-21T11:41:34;2.80;;;1.95;;
73940;SDS011;62294;48.554;10.202;2022-08-21T11:44:23;5.78;;;2.20;;
73940;SDS011;62294;48.554;10.202;2022-08-21T11:50:30;3.05;;;2.13;;
73940;SDS011;62294;48.554;10.202;2022-08-21T11:53:11;3.92;;;2.58;;
73940;SDS011;62294;48.554;10.202;2022-08-21T11:55:51;5.18;;;2.30;;
73940;SDS011;62294;48.554;10.202;2022-08-21T11:58:42;4.93;;;2.50;;
73940;SDS011;62294;48.554;10.202;2022-08-21T12:01:19;4.15;;;2.00;;
73940;SDS011;62294;48.554;10.202;2022-08-21T12:03:54;4.93;;;2.40;;
73940;SDS011;62294;48.554;10.202;2022-08-21T12:06:33;5.60;;;2.30;;
73940;SDS011;62294;48.554;10.202;2022-08-21T12:09:05;5.40;;;1.98;;
73940;SDS011;62294;48.554;10.202;2022-08-21T12:11:48;4.45;;;2.50;;
73940;SDS011;62294;48.554;10.202;2022-08-21T12:14:18;3.58;;;2.20;;
73940;SDS011;62294;48.554;10.202;2022-08-21T12:16:46;4.10;;;2.13;;
73940;SDS011;62294;48.554;10.202;2022-08-21T12:24:33;3.05;;;2.20;;
73940;SDS011;62294;48.554;10.202;2022-08-21T12:29:48;5.63;;;2.60;;
73940;SDS011;62294;48.554;10.202;2022-08-21T12:37:42;10.05;;;2.90;;
73940;SDS011;62294;48.554;10.202;2022-08-21T12:40:18;3.97;;;2.78;;
73940;SDS011;62294;48.554;10.202;2022-08-21T12:42:49;3.58;;;2.30;;
73940;SDS011;62294;48.554;10.202;2022-08-21T12:48:06;4.38;;;2.40;;
73940;SDS011;62294;48.554;10.202;2022-08-21T12:50:46;5.15;;;2.47;;
73940;SDS011;62294;48.554;10.202;2022-08-21T12:56:13;4.13;;;2.47;;
73940;SDS011;62294;48.554;10.202;2022-08-21T12:58:44;3.45;;;1.92;;
73940;SDS011;62294;48.554;10.202;2022-08-21T13:04:08;5.50;;;2.50;;
73940;SDS011;62294;48.554;10.202;2022-08-21T13:06:39;3.75;;;2.20;;
73940;SDS011;62294;48.554;10.202;2022-08-21T13:09:16;4.00;;;2.25;;
73940;SDS011;62294;48.554;10.202;2022-08-21T13:11:50;4.68;;;2.05;;
73940;SDS011;62294;48.554;10.202;2022-08-21T13:14:25;3.78;;;2.03;;
73940;SDS011;62294;48.554;10.202;2022-08-21T13:16:57;5.40;;;1.80;;
73940;SDS011;62294;48.554;10.202;2022-08-21T13:19:25;3.75;;;2.00;;
73940;SDS011;62294;48.554;10.202;2022-08-21T13:21:52;3.22;;;2.20;;
73940;SDS011;62294;48.554;10.202;2022-08-21T13:24:21;3.40;;;2.17;;
73940;SDS011;62294;48.554;10.202;2022-08-21T13:27:24;3.72;;;2.00;;
73940;SDS011;62294;48.554;10.202;2022-08-21T13:32:37;2.63;;;2.03;;
73940;SDS011;62294;48.554;10.202;2022-08-21T13:35:12;4.82;;;2.25;;
73940;SDS011;62294;48.554;10.202;2022-08-21T13:37:43;4.15;;;2.00;;
73940;SDS011;62294;48.554;10.202;2022-08-21T13:40:17;5.38;;;2.25;;
73940;SDS011;62294;48.554;10.202;2022-08-21T13:42:47;4.65;;;2.22;;
73940;SDS011;62294;48.554;10.202;2022-08-21T13:45:16;5.03;;;2.33;;
73940;SDS011;62294;48.554;10.202;2022-08-21T13:47:47;5.32;;;2.22;;
73940;SDS011;62294;48.554;10.202;2022-08-21T13:50:15;3.60;;;2.20;;
73940;SDS011;62294;48.554;10.202;2022-08-21T13:52:46;4.10;;;2.45;;
73940;SDS011;62294;48.554;10.202;2022-08-21T13:55:39;4.25;;;2.58;;
73940;SDS011;62294;48.554;10.202;2022-08-21T13:58:09;3.17;;;2.03;;
73940;SDS011;62294;48.554;10.202;2022-08-21T14:00:47;5.72;;;2.30;;
73940;SDS011;62294;48.554;10.202;2022-08-21T14:03:33;3.78;;;1.95;;
73940;SDS011;62294;48.554;10.202;2022-08-21T14:06:14;3.72;;;2.15;;
73940;SDS011;62294;48.554;10.202;2022-08-21T14:08:49;5.05;;;2.13;;
73940;SDS011;62294;48.554;10.202;2022-08-21T14:11:19;4.35;;;2.25;;
73940;SDS011;62294;48.554;10.202;2022-08-21T14:13:48;5.15;;;2.10;;
73940;SDS011;62294;48.554;10.202;2022-08-21T14:21:46;4.97;;;2.47;;
73940;SDS011;62294;48.554;10.202;2022-08-21T14:24:14;5.50;;;2.10;;
73940;SDS011;62294;48.554;10.202;2022-08-21T14:26:53;4.70;;;2.50;;
73940;SDS011;62294;48.554;10.202;2022-08-21T14:29:25;4.05;;;2.30;;
73940;SDS011;62294;48.554;10.202;2022-08-21T14:31:59;5.68;;;2.50;;
73940;SDS011;62294;48.554;10.202;2022-08-21T14:34:29;3.55;;;2.10;;
73940;SDS011;62294;48.554;10.202;2022-08-21T14:37:01;5.38;;;2.33;;
73940;SDS011;62294;48.554;10.202;2022-08-21T14:39:28;4.55;;;2.33;;
73940;SDS011;62294;48.554;10.202;2022-08-21T14:41:54;4.32;;;2.25;;
73940;SDS011;62294;48.554;10.202;2022-08-21T14:44:23;6.45;;;2.35;;
73940;SDS011;62294;48.554;10.202;2022-08-21T14:46:50;3.05;;;2.00;;
73940;SDS011;62294;48.554;10.202;2022-08-21T14:49:23;3.72;;;2.10;;
73940;SDS011;62294;48.554;10.202;2022-08-21T14:51:53;5.18;;;2.40;;
73940;SDS011;62294;48.554;10.202;2022-08-21T14:54:24;3.05;;;1.83;;
73940;SDS011;62294;48.554;10.202;2022-08-21T14:56:56;3.57;;;2.43;;
73940;SDS011;62294;48.554;10.202;2022-08-21T14:59:25;5.68;;;2.20;;
73940;SDS011;62294;48.554;10.202;2022-08-21T15:01:51;8.07;;;2.10;;
73940;SDS011;62294;48.554;10.202;2022-08-21T15:04:18;3.05;;;1.92;;
73940;SDS011;62294;48.554;10.202;2022-08-21T15:06:45;4.15;;;2.05;;
73940;SDS011;62294;48.554;10.202;2022-08-21T15:09:11;4.43;;;2.30;;
73940;SDS011;62294;48.554;10.202;2022-08-21T15:11:38;4.90;;;2.28;;
73940;SDS011;62294;48.554;10.202;2022-08-21T15:14:08;3.60;;;1.90;;
73940;SDS011;62294;48.554;10.202;2022-08-21T15:16:39;5.00;;;1.92;;
73940;SDS011;62294;48.554;10.202;2022-08-21T15:19:06;3.45;;;1.95;;
73940;SDS011;62294;48.554;10.202;2022-08-21T15:21:32;4.82;;;1.90;;
73940;SDS011;62294;48.554;10.202;2022-08-21T15:23:59;3.50;;;1.98;;
73940;SDS011;62294;48.554;10.202;2022-08-21T15:26:25;3.55;;;2.10;;
73940;SDS011;62294;48.554;10.202;2022-08-21T15:28:52;4.22;;;1.98;;
73940;SDS011;62294;48.554;10.202;2022-08-21T15:31:18;3.85;;;2.10;;
73940;SDS011;62294;48.554;10.202;2022-08-21T15:33:45;3.22;;;2.08;;
73940;SDS011;62294;48.554;10.202;2022-08-21T15:36:12;4.00;;;1.80;;
73940;SDS011;62294;48.554;10.202;2022-08-21T15:38:38;4.03;;;2.00;;
73940;SDS011;62294;48.554;10.202;2022-08-21T15:41:05;4.20;;;2.22;;
73940;SDS011;62294;48.554;10.202;2022-08-21T15:43:37;4.32;;;2.30;;
73940;SDS011;62294;48.554;10.202;2022-08-21T15:46:12;6.45;;;2.20;;
73940;SDS011;62294;48.554;10.202;2022-08-21T15:48:41;4.18;;;2.20;;
73940;SDS011;62294;48.554;10.202;2022-08-21T15:51:09;4.53;;;2.00;;
73940;SDS011;62294;48.554;10.202;2022-08-21T15:53:37;5.35;;;1.98;;
73940;SDS011;62294;48.554;10.202;2022-08-21T15:56:06;4.05;;;2.25;;
73940;SDS011;62294;48.554;10.202;2022-08-21T15:58:44;3.63;;;2.15;;
73940;SDS011;62294;48.554;10.202;2022-08-21T16:01:10;4.07;;;2.15;;
73940;SDS011;62294;48.554;10.202;2022-08-21T16:03:37;3.40;;;2.20;;
73940;SDS011;62294;48.554;10.202;2022-08-21T16:06:04;7.75;;;2.88;;
73940;SDS011;62294;48.554;10.202;2022-08-21T16:08:31;3.15;;;2.03;;
73940;SDS011;62294;48.554;10.202;2022-08-21T16:10:57;4.50;;;2.20;;
73940;SDS011;62294;48.554;10.202;2022-08-21T16:13:27;3.80;;;2.58;;
73940;SDS011;62294;48.554;10.202;2022-08-21T16:15:58;7.50;;;2.90;;